FWG117 LGSA-LTFE
Flight info
| Callsign | FWG117 |
|---|---|
| Flight time | 0h 41m |
| Altitude | 31000 |
| Route | BAVES DCT YUNUS |
| Aircraft | A321/M-SDE3FGHIRWY/LB1 |
Departure
| Time | 2026-05-08 15:46 |
|---|---|
| Airport | Chania International Airport (LGSA) |
Arrival
| Time | 2026-05-08 16:27 |
|---|---|
| Airport | Milas Bodrum International Airport (LTFE) |
| Time | Latitude | Longitude | Altitude | Speed | Heading |
|---|---|---|---|---|---|
| 2026-05-08 15:35 | 35.53874 | 24.14020 | 498 ft | 0 kts | 60° |
| 2026-05-08 15:41 | 35.53874 | 24.14023 | 518 ft | 0 kts | 75° |
| 2026-05-08 15:41 | 35.53872 | 24.14025 | 518 ft | 0 kts | 102° |
| 2026-05-08 15:41 | 35.53868 | 24.14026 | 492 ft | 1 kts | 144° |
| 2026-05-08 15:42 | 35.53864 | 24.14022 | 487 ft | 1 kts | 204° |
| 2026-05-08 15:42 | 35.53857 | 24.14010 | 489 ft | 3 kts | 232° |
| 2026-05-08 15:42 | 35.53842 | 24.13986 | 487 ft | 5 kts | 236° |
| 2026-05-08 15:42 | 35.53829 | 24.13944 | 496 ft | 6 kts | 261° |
| 2026-05-08 15:43 | 35.53840 | 24.13888 | 489 ft | 8 kts | 287° |
| 2026-05-08 15:43 | 35.53820 | 24.13831 | 494 ft | 8 kts | 225° |
| 2026-05-08 15:43 | 35.53782 | 24.13771 | 494 ft | 10 kts | 256° |
| 2026-05-08 15:43 | 35.53791 | 24.13686 | 493 ft | 11 kts | 289° |
| 2026-05-08 15:44 | 35.53818 | 24.13592 | 495 ft | 13 kts | 288° |
| 2026-05-08 15:44 | 35.53844 | 24.13484 | 495 ft | 14 kts | 292° |
| 2026-05-08 15:44 | 35.53883 | 24.13366 | 491 ft | 16 kts | 292° |
| 2026-05-08 15:44 | 35.53891 | 24.13238 | 489 ft | 15 kts | 230° |
| 2026-05-08 15:45 | 35.53795 | 24.13189 | 495 ft | 15 kts | 171° |
| 2026-05-08 15:45 | 35.53727 | 24.13280 | 495 ft | 16 kts | 114° |
| 2026-05-08 15:45 | 35.53679 | 24.13421 | 488 ft | 27 kts | 112° |
| 2026-05-08 15:45 | 35.53492 | 24.14019 | 500 ft | 120 kts | 111° |
| 2026-05-08 15:46 | 35.53085 | 24.15271 | 507 ft | 192 kts | 111° |
| 2026-05-08 15:46 | 35.52553 | 24.16968 | 760 ft | 235 kts | 110° |
| 2026-05-08 15:46 | 35.51922 | 24.18896 | 1828 ft | 248 kts | 112° |
| 2026-05-08 15:46 | 35.51428 | 24.20981 | 3063 ft | 261 kts | 104° |
| 2026-05-08 15:47 | 35.51025 | 24.23206 | 4240 ft | 273 kts | 103° |
| 2026-05-08 15:47 | 35.50622 | 24.25528 | 5385 ft | 283 kts | 102° |
| 2026-05-08 15:47 | 35.50210 | 24.27940 | 6475 ft | 293 kts | 102° |
| 2026-05-08 15:47 | 35.49786 | 24.30422 | 7476 ft | 302 kts | 102° |
| 2026-05-08 15:48 | 35.48907 | 24.35567 | 9432 ft | 317 kts | 102° |
| 2026-05-08 15:48 | 35.48449 | 24.38250 | 10322 ft | 326 kts | 103° |
| 2026-05-08 15:48 | 35.47964 | 24.41082 | 10708 ft | 351 kts | 103° |
| 2026-05-08 15:49 | 35.47443 | 24.44115 | 11000 ft | 375 kts | 103° |
| 2026-05-08 15:49 | 35.46885 | 24.47347 | 11252 ft | 398 kts | 103° |
| 2026-05-08 15:49 | 35.46302 | 24.50715 | 11815 ft | 409 kts | 103° |
| 2026-05-08 15:49 | 35.45705 | 24.54163 | 12541 ft | 415 kts | 103° |
| 2026-05-08 15:50 | 35.45101 | 24.57647 | 13255 ft | 422 kts | 103° |
| 2026-05-08 15:50 | 35.44483 | 24.61195 | 13956 ft | 428 kts | 103° |
| 2026-05-08 15:50 | 35.43857 | 24.64778 | 14601 ft | 433 kts | 103° |
| 2026-05-08 15:50 | 35.43421 | 24.68452 | 15297 ft | 438 kts | 93° |
| 2026-05-08 15:51 | 35.43513 | 24.72184 | 15995 ft | 440 kts | 81° |
| 2026-05-08 15:51 | 35.44146 | 24.75860 | 16698 ft | 441 kts | 70° |
| 2026-05-08 15:51 | 35.45105 | 24.78865 | 17287 ft | 440 kts | 60° |
| 2026-05-08 15:51 | 35.46520 | 24.82188 | 17990 ft | 441 kts | 58° |
| 2026-05-08 15:52 | 35.47954 | 24.85533 | 18645 ft | 444 kts | 58° |
| 2026-05-08 15:52 | 35.49392 | 24.88903 | 19213 ft | 448 kts | 58° |
| 2026-05-08 15:52 | 35.50843 | 24.92311 | 19769 ft | 452 kts | 59° |
| 2026-05-08 15:52 | 35.52302 | 24.95754 | 20329 ft | 455 kts | 59° |
| 2026-05-08 15:53 | 35.53750 | 24.99178 | 20857 ft | 459 kts | 59° |
| 2026-05-08 15:53 | 35.55224 | 25.02664 | 21366 ft | 463 kts | 59° |
| 2026-05-08 15:53 | 35.55896 | 25.04256 | 21588 ft | 464 kts | 59° |
| 2026-05-08 15:53 | 35.57384 | 25.07783 | 22058 ft | 467 kts | 59° |
| 2026-05-08 15:54 | 35.58886 | 25.11340 | 22497 ft | 470 kts | 59° |
| 2026-05-08 15:54 | 35.60399 | 25.14921 | 22965 ft | 474 kts | 59° |
| 2026-05-08 15:54 | 35.61919 | 25.18526 | 23412 ft | 477 kts | 60° |
| 2026-05-08 15:54 | 35.63447 | 25.22159 | 23828 ft | 480 kts | 60° |
| 2026-05-08 15:55 | 35.64981 | 25.25820 | 24193 ft | 483 kts | 60° |
| 2026-05-08 15:55 | 35.68083 | 25.33211 | 24882 ft | 490 kts | 59° |
| 2026-05-08 15:55 | 35.69652 | 25.36949 | 25232 ft | 493 kts | 59° |
| 2026-05-08 15:56 | 35.71230 | 25.40710 | 25579 ft | 496 kts | 59° |
| 2026-05-08 15:56 | 35.72815 | 25.44499 | 25913 ft | 499 kts | 59° |
| 2026-05-08 15:56 | 35.74407 | 25.48307 | 26251 ft | 503 kts | 59° |
| 2026-05-08 15:56 | 35.76011 | 25.52156 | 26585 ft | 506 kts | 60° |
| 2026-05-08 15:57 | 35.77619 | 25.56023 | 26902 ft | 509 kts | 60° |
| 2026-05-08 15:57 | 35.79235 | 25.59914 | 27202 ft | 512 kts | 59° |
| 2026-05-08 15:57 | 35.80865 | 25.63836 | 27494 ft | 515 kts | 59° |
| 2026-05-08 15:57 | 35.82499 | 25.67765 | 27778 ft | 517 kts | 59° |
| 2026-05-08 15:58 | 35.84142 | 25.71720 | 28051 ft | 520 kts | 59° |
| 2026-05-08 15:58 | 35.85788 | 25.75690 | 28371 ft | 521 kts | 59° |
| 2026-05-08 15:58 | 35.87432 | 25.79672 | 28764 ft | 520 kts | 60° |
| 2026-05-08 15:58 | 35.89053 | 25.83600 | 29139 ft | 520 kts | 59° |
| 2026-05-08 15:59 | 35.90710 | 25.87623 | 29513 ft | 520 kts | 59° |
| 2026-05-08 15:59 | 35.92328 | 25.91551 | 29875 ft | 520 kts | 59° |
| 2026-05-08 15:59 | 35.93973 | 25.95543 | 30084 ft | 521 kts | 59° |
| 2026-05-08 15:59 | 35.95600 | 25.99498 | 30116 ft | 514 kts | 59° |
| 2026-05-08 16:00 | 35.98822 | 26.07348 | 30113 ft | 512 kts | 59° |
| 2026-05-08 16:00 | 36.02037 | 26.15187 | 30120 ft | 511 kts | 59° |
| 2026-05-08 16:01 | 36.05239 | 26.23038 | 30114 ft | 511 kts | 59° |
| 2026-05-08 16:01 | 36.08438 | 26.30889 | 30119 ft | 511 kts | 59° |
| 2026-05-08 16:02 | 36.11095 | 26.37416 | 30122 ft | 511 kts | 59° |
| 2026-05-08 16:02 | 36.14279 | 26.45279 | 30129 ft | 511 kts | 59° |
| 2026-05-08 16:03 | 36.17472 | 26.53164 | 30131 ft | 512 kts | 59° |
| 2026-05-08 16:03 | 36.20652 | 26.61036 | 30133 ft | 512 kts | 60° |
| 2026-05-08 16:04 | 36.23823 | 26.68934 | 30135 ft | 511 kts | 60° |
| 2026-05-08 16:04 | 36.26998 | 26.76813 | 30118 ft | 511 kts | 59° |
| 2026-05-08 16:05 | 36.30163 | 26.84691 | 30119 ft | 510 kts | 60° |
| 2026-05-08 16:05 | 36.33321 | 26.92577 | 30132 ft | 511 kts | 60° |
| 2026-05-08 16:06 | 36.36467 | 27.00475 | 30131 ft | 511 kts | 60° |
| 2026-05-08 16:06 | 36.39581 | 27.08330 | 30133 ft | 510 kts | 60° |
| 2026-05-08 16:07 | 36.42709 | 27.16224 | 30143 ft | 510 kts | 60° |
| 2026-05-08 16:07 | 36.45842 | 27.24135 | 29974 ft | 509 kts | 60° |
| 2026-05-08 16:08 | 36.47400 | 27.28081 | 29706 ft | 509 kts | 60° |
| 2026-05-08 16:08 | 36.48960 | 27.32034 | 29427 ft | 508 kts | 60° |
| 2026-05-08 16:08 | 36.50515 | 27.35975 | 29157 ft | 508 kts | 60° |
| 2026-05-08 16:08 | 36.52066 | 27.39905 | 28478 ft | 505 kts | 60° |
| 2026-05-08 16:09 | 36.53602 | 27.43804 | 27739 ft | 501 kts | 60° |
| 2026-05-08 16:09 | 36.55132 | 27.47694 | 26979 ft | 498 kts | 60° |
| 2026-05-08 16:09 | 36.56647 | 27.51556 | 26201 ft | 496 kts | 60° |
| 2026-05-08 16:09 | 36.58156 | 27.55407 | 25390 ft | 494 kts | 60° |
| 2026-05-08 16:10 | 36.59656 | 27.59235 | 24567 ft | 492 kts | 60° |
| 2026-05-08 16:10 | 36.61137 | 27.63024 | 23461 ft | 493 kts | 60° |
| 2026-05-08 16:10 | 36.62621 | 27.66829 | 22472 ft | 486 kts | 60° |
| 2026-05-08 16:10 | 36.64087 | 27.70600 | 21572 ft | 482 kts | 60° |
| 2026-05-08 16:11 | 36.65522 | 27.74298 | 20673 ft | 479 kts | 60° |
| 2026-05-08 16:11 | 36.67163 | 27.77846 | 19770 ft | 468 kts | 48° |
| 2026-05-08 16:11 | 36.69459 | 27.80607 | 18915 ft | 453 kts | 31° |
| 2026-05-08 16:11 | 36.72213 | 27.82364 | 18040 ft | 438 kts | 14° |
| 2026-05-08 16:12 | 36.75121 | 27.83048 | 17199 ft | 423 kts | 358° |
| 2026-05-08 16:12 | 36.77996 | 27.82739 | 16366 ft | 410 kts | 343° |
| 2026-05-08 16:12 | 36.80629 | 27.81528 | 15579 ft | 399 kts | 329° |
| 2026-05-08 16:12 | 36.83028 | 27.79835 | 14823 ft | 394 kts | 328° |
| 2026-05-08 16:13 | 36.85222 | 27.78273 | 14151 ft | 390 kts | 328° |
| 2026-05-08 16:13 | 36.87567 | 27.76604 | 13381 ft | 386 kts | 328° |
| 2026-05-08 16:13 | 36.89883 | 27.74959 | 12696 ft | 379 kts | 328° |
| 2026-05-08 16:13 | 36.92160 | 27.73346 | 12025 ft | 373 kts | 328° |
| 2026-05-08 16:14 | 36.94397 | 27.71757 | 11368 ft | 366 kts | 327° |
| 2026-05-08 16:14 | 36.96580 | 27.70199 | 10983 ft | 353 kts | 328° |
| 2026-05-08 16:14 | 36.98636 | 27.68744 | 10852 ft | 335 kts | 328° |
| 2026-05-08 16:14 | 37.00613 | 27.67349 | 10739 ft | 317 kts | 328° |
| 2026-05-08 16:15 | 37.02483 | 27.66028 | 10621 ft | 301 kts | 327° |
| 2026-05-08 16:15 | 37.04268 | 27.64762 | 10452 ft | 289 kts | 327° |
| 2026-05-08 16:15 | 37.05989 | 27.63534 | 10218 ft | 282 kts | 327° |
| 2026-05-08 16:15 | 37.07683 | 27.62319 | 10026 ft | 279 kts | 327° |
| 2026-05-08 16:16 | 37.09373 | 27.61106 | 9898 ft | 279 kts | 327° |
| 2026-05-08 16:16 | 37.11059 | 27.59897 | 9766 ft | 279 kts | 327° |
| 2026-05-08 16:16 | 37.12744 | 27.58691 | 9637 ft | 279 kts | 327° |
| 2026-05-08 16:16 | 37.14417 | 27.57496 | 9494 ft | 272 kts | 327° |
| 2026-05-08 16:17 | 37.15980 | 27.56281 | 9403 ft | 255 kts | 319° |
| 2026-05-08 16:17 | 37.17161 | 27.54735 | 9092 ft | 240 kts | 303° |
| 2026-05-08 16:17 | 37.17910 | 27.52934 | 8613 ft | 226 kts | 289° |
| 2026-05-08 16:17 | 37.18352 | 27.51043 | 8294 ft | 229 kts | 285° |
| 2026-05-08 16:18 | 37.18795 | 27.49148 | 7989 ft | 227 kts | 285° |
| 2026-05-08 16:18 | 37.19245 | 27.47243 | 7679 ft | 225 kts | 285° |
| 2026-05-08 16:18 | 37.19696 | 27.45341 | 7378 ft | 226 kts | 285° |
| 2026-05-08 16:18 | 37.20141 | 27.43465 | 7058 ft | 229 kts | 285° |
| 2026-05-08 16:19 | 37.20590 | 27.41566 | 6729 ft | 229 kts | 285° |
| 2026-05-08 16:19 | 37.21040 | 27.39658 | 6404 ft | 229 kts | 285° |
| 2026-05-08 16:19 | 37.21492 | 27.37748 | 6067 ft | 227 kts | 285° |
| 2026-05-08 16:19 | 37.22084 | 27.35906 | 5747 ft | 227 kts | 302° |
| 2026-05-08 16:20 | 37.23272 | 27.34577 | 5438 ft | 232 kts | 330° |
| 2026-05-08 16:20 | 37.24833 | 27.34113 | 5087 ft | 234 kts | 0° |
| 2026-05-08 16:20 | 37.26413 | 27.34538 | 4725 ft | 234 kts | 17° |
| 2026-05-08 16:20 | 37.27955 | 27.35116 | 4337 ft | 232 kts | 16° |
| 2026-05-08 16:21 | 37.29481 | 27.35683 | 4133 ft | 219 kts | 16° |
| 2026-05-08 16:21 | 37.30743 | 27.36427 | 4069 ft | 189 kts | 40° |
| 2026-05-08 16:21 | 37.31449 | 27.37665 | 3979 ft | 165 kts | 70° |
| 2026-05-08 16:21 | 37.31594 | 27.39011 | 3914 ft | 151 kts | 97° |
| 2026-05-08 16:22 | 37.31339 | 27.40277 | 3853 ft | 149 kts | 108° |
| 2026-05-08 16:22 | 37.31042 | 27.41526 | 3783 ft | 149 kts | 108° |
| 2026-05-08 16:22 | 37.30747 | 27.42769 | 3736 ft | 148 kts | 108° |
| 2026-05-08 16:22 | 37.30452 | 27.44016 | 3625 ft | 149 kts | 108° |
| 2026-05-08 16:23 | 37.30159 | 27.45256 | 3454 ft | 148 kts | 108° |
| 2026-05-08 16:23 | 37.29868 | 27.46490 | 3257 ft | 147 kts | 108° |
| 2026-05-08 16:23 | 37.29576 | 27.47725 | 3046 ft | 147 kts | 108° |
| 2026-05-08 16:23 | 37.29284 | 27.48958 | 2837 ft | 147 kts | 108° |
| 2026-05-08 16:24 | 37.28993 | 27.50188 | 2625 ft | 147 kts | 107° |
| 2026-05-08 16:24 | 37.28703 | 27.51413 | 2414 ft | 146 kts | 107° |
| 2026-05-08 16:24 | 37.28416 | 27.52621 | 2201 ft | 146 kts | 107° |
| 2026-05-08 16:24 | 37.28128 | 27.53839 | 1989 ft | 146 kts | 107° |
| 2026-05-08 16:25 | 37.27835 | 27.55074 | 1778 ft | 146 kts | 107° |
| 2026-05-08 16:25 | 37.27550 | 27.56274 | 1565 ft | 145 kts | 107° |
| 2026-05-08 16:25 | 37.27262 | 27.57488 | 1349 ft | 145 kts | 107° |
| 2026-05-08 16:25 | 37.26975 | 27.58697 | 1138 ft | 144 kts | 107° |
| 2026-05-08 16:26 | 37.26689 | 27.59900 | 928 ft | 144 kts | 107° |
| 2026-05-08 16:26 | 37.26403 | 27.61102 | 720 ft | 144 kts | 107° |
| 2026-05-08 16:26 | 37.26118 | 27.62299 | 517 ft | 144 kts | 108° |
| 2026-05-08 16:26 | 37.25831 | 27.63506 | 315 ft | 144 kts | 108° |
| 2026-05-08 16:27 | 37.25543 | 27.64713 | 108 ft | 144 kts | 107° |
| 2026-05-08 16:27 | 37.25275 | 27.65845 | 29 ft | 111 kts | 105° |
| 2026-05-08 16:27 | 37.25133 | 27.66454 | 30 ft | 44 kts | 110° |
| 2026-05-08 16:27 | 37.25005 | 27.66685 | 29 ft | 16 kts | 132° |
| 2026-05-08 16:28 | 37.24974 | 27.66727 | 29 ft | 15 kts | 133° |
| 2026-05-08 16:28 | 37.24881 | 27.66845 | 28 ft | 21 kts | 136° |
| 2026-05-08 16:28 | 37.24767 | 27.66950 | 30 ft | 18 kts | 154° |
| 2026-05-08 16:28 | 37.24664 | 27.66990 | 30 ft | 12 kts | 123° |
| 2026-05-08 16:29 | 37.24645 | 27.67085 | 30 ft | 12 kts | 111° |
| 2026-05-08 16:29 | 37.24615 | 27.67191 | 30 ft | 14 kts | 108° |
| 2026-05-08 16:29 | 37.24583 | 27.67312 | 31 ft | 16 kts | 108° |
| 2026-05-08 16:29 | 37.24549 | 27.67450 | 30 ft | 18 kts | 106° |
| 2026-05-08 16:30 | 37.24514 | 27.67596 | 30 ft | 15 kts | 107° |
| 2026-05-08 16:30 | 37.24496 | 27.67674 | 30 ft | 8 kts | 106° |
| 2026-05-08 16:30 | 37.24457 | 27.67723 | 30 ft | 9 kts | 174° |
| 2026-05-08 16:30 | 37.24429 | 27.67717 | 30 ft | 3 kts | 194° |
| 2026-05-08 16:31 | 37.24410 | 27.67711 | 30 ft | 0 kts | 196° |
| 2026-05-08 16:31 | 37.24405 | 27.67709 | 30 ft | 0 kts | 196° |